Terminal Aerodrome Forecast
Issued by NWS Sterling, VA

Current Version | Previous Version | Text Only | Print | Product List | Glossary Off
Versions: 1 2 3 4 5 6 7 8 9 10 11 12 13

243
FTUS41 KLWX 060523
TAFMRB
TAF
KMRB 060523Z 0606/0706 VRB03KT P6SM BKN200
     FM061600 20006KT P6SM BKN200
     FM070000 VRB03KT P6SM BKN200=

USA.gov is the U.S. government's official web portal to all federal, state and local government web resources and services.